sensor_id;sensor_type;location;lat;lon;timestamp;P1;durP1;ratioP1;P2;durP2;ratioP2
51949;SDS011;37974;53.218;6.640;2022-10-17T00:01:06;33.05;;;14.45;;
51949;SDS011;37974;53.218;6.640;2022-10-17T00:03:32;27.98;;;11.82;;
51949;SDS011;37974;53.218;6.640;2022-10-17T00:06:03;21.85;;;8.63;;
51949;SDS011;37974;53.218;6.640;2022-10-17T00:08:36;20.35;;;5.93;;
51949;SDS011;37974;53.218;6.640;2022-10-17T00:11:04;15.88;;;6.68;;
51949;SDS011;37974;53.218;6.640;2022-10-17T00:13:31;19.92;;;5.55;;
51949;SDS011;37974;53.218;6.640;2022-10-17T00:15:58;20.98;;;5.15;;
51949;SDS011;37974;53.218;6.640;2022-10-17T00:18:23;15.35;;;4.13;;
51949;SDS011;37974;53.218;6.640;2022-10-17T00:20:49;14.45;;;4.00;;
51949;SDS011;37974;53.218;6.640;2022-10-17T00:23:15;16.65;;;4.10;;
51949;SDS011;37974;53.218;6.640;2022-10-17T00:25:41;20.42;;;4.45;;
51949;SDS011;37974;53.218;6.640;2022-10-17T00:28:08;15.38;;;4.28;;
51949;SDS011;37974;53.218;6.640;2022-10-17T00:30:35;17.60;;;4.57;;
51949;SDS011;37974;53.218;6.640;2022-10-17T00:33:00;14.88;;;3.60;;
51949;SDS011;37974;53.218;6.640;2022-10-17T00:35:26;19.05;;;4.10;;
51949;SDS011;37974;53.218;6.640;2022-10-17T00:37:52;17.92;;;4.15;;
51949;SDS011;37974;53.218;6.640;2022-10-17T00:40:17;19.00;;;4.00;;
51949;SDS011;37974;53.218;6.640;2022-10-17T00:42:43;17.63;;;4.20;;
51949;SDS011;37974;53.218;6.640;2022-10-17T00:45:15;19.35;;;3.80;;
51949;SDS011;37974;53.218;6.640;2022-10-17T00:47:46;14.68;;;3.97;;
51949;SDS011;37974;53.218;6.640;2022-10-17T00:50:15;17.75;;;4.05;;
51949;SDS011;37974;53.218;6.640;2022-10-17T00:52:41;17.20;;;3.75;;
51949;SDS011;37974;53.218;6.640;2022-10-17T00:55:10;15.90;;;3.85;;
51949;SDS011;37974;53.218;6.640;2022-10-17T00:57:40;12.43;;;3.88;;
51949;SDS011;37974;53.218;6.640;2022-10-17T01:00:08;10.13;;;3.47;;
51949;SDS011;37974;53.218;6.640;2022-10-17T01:02:35;17.00;;;3.92;;
51949;SDS011;37974;53.218;6.640;2022-10-17T01:05:01;14.70;;;4.13;;
51949;SDS011;37974;53.218;6.640;2022-10-17T01:07:27;14.85;;;3.65;;
51949;SDS011;37974;53.218;6.640;2022-10-17T01:09:54;11.48;;;3.90;;
51949;SDS011;37974;53.218;6.640;2022-10-17T01:12:22;20.92;;;4.10;;
51949;SDS011;37974;53.218;6.640;2022-10-17T01:15:02;17.97;;;4.30;;
51949;SDS011;37974;53.218;6.640;2022-10-17T01:17:34;15.07;;;3.83;;
51949;SDS011;37974;53.218;6.640;2022-10-17T01:20:43;17.13;;;4.90;;
51949;SDS011;37974;53.218;6.640;2022-10-17T01:26:02;17.40;;;4.80;;
51949;SDS011;37974;53.218;6.640;2022-10-17T01:31:11;18.35;;;4.90;;
51949;SDS011;37974;53.218;6.640;2022-10-17T01:36:11;15.23;;;5.13;;
51949;SDS011;37974;53.218;6.640;2022-10-17T01:38:45;18.33;;;6.07;;
51949;SDS011;37974;53.218;6.640;2022-10-17T01:41:25;19.40;;;4.72;;
51949;SDS011;37974;53.218;6.640;2022-10-17T01:44:02;15.63;;;5.30;;
51949;SDS011;37974;53.218;6.640;2022-10-17T01:46:35;14.07;;;5.22;;
51949;SDS011;37974;53.218;6.640;2022-10-17T01:49:02;12.55;;;5.00;;
51949;SDS011;37974;53.218;6.640;2022-10-17T01:51:33;19.02;;;5.93;;
51949;SDS011;37974;53.218;6.640;2022-10-17T01:54:10;18.67;;;5.75;;
51949;SDS011;37974;53.218;6.640;2022-10-17T01:56:42;17.95;;;5.75;;
51949;SDS011;37974;53.218;6.640;2022-10-17T01:59:11;17.75;;;5.82;;
51949;SDS011;37974;53.218;6.640;2022-10-17T02:01:41;13.15;;;5.38;;
51949;SDS011;37974;53.218;6.640;2022-10-17T02:04:09;17.52;;;5.70;;
51949;SDS011;37974;53.218;6.640;2022-10-17T02:06:36;16.02;;;6.38;;
51949;SDS011;37974;53.218;6.640;2022-10-17T02:09:15;12.20;;;6.03;;
51949;SDS011;37974;53.218;6.640;2022-10-17T02:11:51;14.13;;;6.45;;
51949;SDS011;37974;53.218;6.640;2022-10-17T02:17:13;15.35;;;6.72;;
51949;SDS011;37974;53.218;6.640;2022-10-17T02:19:58;16.55;;;7.72;;
51949;SDS011;37974;53.218;6.640;2022-10-17T02:30:18;18.98;;;8.50;;
51949;SDS011;37974;53.218;6.640;2022-10-17T02:32:57;14.57;;;8.45;;
51949;SDS011;37974;53.218;6.640;2022-10-17T02:35:35;15.23;;;8.18;;
51949;SDS011;37974;53.218;6.640;2022-10-17T02:38:04;21.40;;;7.78;;
51949;SDS011;37974;53.218;6.640;2022-10-17T02:40:31;17.23;;;8.23;;
51949;SDS011;37974;53.218;6.640;2022-10-17T02:42:58;16.75;;;7.95;;
51949;SDS011;37974;53.218;6.640;2022-10-17T02:45:25;14.95;;;8.32;;
51949;SDS011;37974;53.218;6.640;2022-10-17T02:47:57;15.10;;;8.00;;
51949;SDS011;37974;53.218;6.640;2022-10-17T02:50:35;18.38;;;7.95;;
51949;SDS011;37974;53.218;6.640;2022-10-17T02:53:09;16.23;;;8.00;;
51949;SDS011;37974;53.218;6.640;2022-10-17T02:55:42;18.23;;;8.40;;
51949;SDS011;37974;53.218;6.640;2022-10-17T02:58:15;17.35;;;8.48;;
51949;SDS011;37974;53.218;6.640;2022-10-17T03:00:47;17.65;;;8.38;;
51949;SDS011;37974;53.218;6.640;2022-10-17T03:05:45;16.02;;;8.88;;
51949;SDS011;37974;53.218;6.640;2022-10-17T03:08:11;20.80;;;8.77;;
51949;SDS011;37974;53.218;6.640;2022-10-17T03:10:37;15.57;;;9.18;;
51949;SDS011;37974;53.218;6.640;2022-10-17T03:13:02;20.73;;;9.82;;
51949;SDS011;37974;53.218;6.640;2022-10-17T03:15:28;20.25;;;9.90;;
51949;SDS011;37974;53.218;6.640;2022-10-17T03:17:54;24.88;;;10.32;;
51949;SDS011;37974;53.218;6.640;2022-10-17T03:20:20;19.83;;;10.75;;
51949;SDS011;37974;53.218;6.640;2022-10-17T03:22:45;16.60;;;10.55;;
51949;SDS011;37974;53.218;6.640;2022-10-17T03:25:11;17.58;;;11.43;;
51949;SDS011;37974;53.218;6.640;2022-10-17T03:27:36;21.25;;;11.30;;
51949;SDS011;37974;53.218;6.640;2022-10-17T03:30:02;17.00;;;10.98;;
51949;SDS011;37974;53.218;6.640;2022-10-17T03:32:28;17.15;;;11.48;;
51949;SDS011;37974;53.218;6.640;2022-10-17T03:34:54;16.33;;;11.82;;
51949;SDS011;37974;53.218;6.640;2022-10-17T03:37:19;19.58;;;11.40;;
51949;SDS011;37974;53.218;6.640;2022-10-17T03:39:45;20.35;;;11.38;;
51949;SDS011;37974;53.218;6.640;2022-10-17T03:42:11;21.20;;;11.68;;
51949;SDS011;37974;53.218;6.640;2022-10-17T03:44:36;22.08;;;12.10;;
51949;SDS011;37974;53.218;6.640;2022-10-17T03:47:02;18.17;;;10.85;;
51949;SDS011;37974;53.218;6.640;2022-10-17T03:49:28;16.67;;;11.05;;
51949;SDS011;37974;53.218;6.640;2022-10-17T03:51:53;14.95;;;10.38;;
51949;SDS011;37974;53.218;6.640;2022-10-17T03:54:19;20.13;;;10.55;;
51949;SDS011;37974;53.218;6.640;2022-10-17T03:56:44;16.13;;;9.65;;
51949;SDS011;37974;53.218;6.640;2022-10-17T03:59:12;20.75;;;9.68;;
51949;SDS011;37974;53.218;6.640;2022-10-17T04:01:38;18.15;;;9.68;;
51949;SDS011;37974;53.218;6.640;2022-10-17T04:04:04;17.38;;;8.55;;
51949;SDS011;37974;53.218;6.640;2022-10-17T04:06:30;14.00;;;8.40;;
51949;SDS011;37974;53.218;6.640;2022-10-17T04:08:56;12.32;;;8.90;;
51949;SDS011;37974;53.218;6.640;2022-10-17T04:11:22;16.45;;;8.77;;
51949;SDS011;37974;53.218;6.640;2022-10-17T04:13:51;17.30;;;8.73;;
51949;SDS011;37974;53.218;6.640;2022-10-17T04:16:18;12.90;;;8.68;;
51949;SDS011;37974;53.218;6.640;2022-10-17T04:18:44;14.40;;;8.30;;
51949;SDS011;37974;53.218;6.640;2022-10-17T04:21:10;15.77;;;8.32;;
51949;SDS011;37974;53.218;6.640;2022-10-17T04:23:36;14.68;;;9.27;;
51949;SDS011;37974;53.218;6.640;2022-10-17T04:26:03;12.95;;;9.27;;
51949;SDS011;37974;53.218;6.640;2022-10-17T04:28:29;18.77;;;9.13;;
51949;SDS011;37974;53.218;6.640;2022-10-17T04:30:56;14.95;;;9.30;;
51949;SDS011;37974;53.218;6.640;2022-10-17T04:33:23;14.48;;;9.70;;
51949;SDS011;37974;53.218;6.640;2022-10-17T04:35:56;21.05;;;10.50;;
51949;SDS011;37974;53.218;6.640;2022-10-17T04:38:22;20.23;;;10.18;;
51949;SDS011;37974;53.218;6.640;2022-10-17T04:40:48;13.77;;;9.80;;
51949;SDS011;37974;53.218;6.640;2022-10-17T04:43:14;15.60;;;10.63;;
51949;SDS011;37974;53.218;6.640;2022-10-17T04:45:39;17.00;;;10.38;;
51949;SDS011;37974;53.218;6.640;2022-10-17T04:48:05;15.18;;;10.48;;
51949;SDS011;37974;53.218;6.640;2022-10-17T04:50:31;15.23;;;11.00;;
51949;SDS011;37974;53.218;6.640;2022-10-17T04:52:56;13.38;;;10.80;;
51949;SDS011;37974;53.218;6.640;2022-10-17T04:55:23;15.75;;;11.30;;
51949;SDS011;37974;53.218;6.640;2022-10-17T04:57:49;16.40;;;11.38;;
51949;SDS011;37974;53.218;6.640;2022-10-17T05:00:14;20.83;;;12.15;;
51949;SDS011;37974;53.218;6.640;2022-10-17T05:02:40;15.73;;;11.32;;
51949;SDS011;37974;53.218;6.640;2022-10-17T05:05:06;20.92;;;12.20;;
51949;SDS011;37974;53.218;6.640;2022-10-17T05:07:31;20.55;;;12.35;;
51949;SDS011;37974;53.218;6.640;2022-10-17T05:09:57;16.67;;;11.23;;
51949;SDS011;37974;53.218;6.640;2022-10-17T05:12:23;20.38;;;12.88;;
51949;SDS011;37974;53.218;6.640;2022-10-17T05:14:49;17.30;;;13.07;;
51949;SDS011;37974;53.218;6.640;2022-10-17T05:17:15;18.20;;;12.93;;
51949;SDS011;37974;53.218;6.640;2022-10-17T05:19:41;19.17;;;13.35;;
51949;SDS011;37974;53.218;6.640;2022-10-17T05:22:07;21.40;;;13.00;;
51949;SDS011;37974;53.218;6.640;2022-10-17T05:24:32;17.20;;;12.25;;
51949;SDS011;37974;53.218;6.640;2022-10-17T05:26:58;21.23;;;13.57;;
51949;SDS011;37974;53.218;6.640;2022-10-17T05:29:24;19.77;;;13.63;;
51949;SDS011;37974;53.218;6.640;2022-10-17T05:31:50;22.42;;;13.48;;
51949;SDS011;37974;53.218;6.640;2022-10-17T05:34:15;18.67;;;13.45;;
51949;SDS011;37974;53.218;6.640;2022-10-17T05:36:41;20.92;;;13.40;;
51949;SDS011;37974;53.218;6.640;2022-10-17T05:39:07;19.88;;;13.82;;
51949;SDS011;37974;53.218;6.640;2022-10-17T05:41:33;21.02;;;14.15;;
51949;SDS011;37974;53.218;6.640;2022-10-17T05:43:59;22.20;;;14.00;;
51949;SDS011;37974;53.218;6.640;2022-10-17T05:46:24;22.80;;;14.73;;
51949;SDS011;37974;53.218;6.640;2022-10-17T05:48:50;22.75;;;14.90;;
51949;SDS011;37974;53.218;6.640;2022-10-17T05:51:16;22.40;;;14.55;;
51949;SDS011;37974;53.218;6.640;2022-10-17T05:53:42;23.55;;;14.40;;
51949;SDS011;37974;53.218;6.640;2022-10-17T05:56:09;17.70;;;13.95;;
51949;SDS011;37974;53.218;6.640;2022-10-17T05:58:40;25.35;;;15.38;;
51949;SDS011;37974;53.218;6.640;2022-10-17T06:01:08;20.80;;;14.13;;
51949;SDS011;37974;53.218;6.640;2022-10-17T06:03:34;24.00;;;14.93;;
51949;SDS011;37974;53.218;6.640;2022-10-17T06:06:02;23.00;;;15.27;;
51949;SDS011;37974;53.218;6.640;2022-10-17T06:08:30;25.15;;;15.13;;
51949;SDS011;37974;53.218;6.640;2022-10-17T06:10:55;19.48;;;14.45;;
51949;SDS011;37974;53.218;6.640;2022-10-17T06:13:21;21.85;;;14.45;;
51949;SDS011;37974;53.218;6.640;2022-10-17T06:15:47;24.45;;;15.40;;
51949;SDS011;37974;53.218;6.640;2022-10-17T06:18:12;24.15;;;15.43;;
51949;SDS011;37974;53.218;6.640;2022-10-17T06:20:38;23.92;;;15.30;;
51949;SDS011;37974;53.218;6.640;2022-10-17T06:23:04;28.10;;;15.95;;
51949;SDS011;37974;53.218;6.640;2022-10-17T06:25:30;21.88;;;15.90;;
51949;SDS011;37974;53.218;6.640;2022-10-17T06:27:56;30.52;;;15.88;;
51949;SDS011;37974;53.218;6.640;2022-10-17T06:30:23;20.60;;;15.60;;
51949;SDS011;37974;53.218;6.640;2022-10-17T06:32:50;25.17;;;14.93;;
51949;SDS011;37974;53.218;6.640;2022-10-17T06:35:16;20.40;;;15.05;;
51949;SDS011;37974;53.218;6.640;2022-10-17T06:37:42;28.52;;;16.10;;
51949;SDS011;37974;53.218;6.640;2022-10-17T06:40:08;22.60;;;15.82;;
51949;SDS011;37974;53.218;6.640;2022-10-17T06:42:36;22.75;;;14.98;;
51949;SDS011;37974;53.218;6.640;2022-10-17T06:45:03;31.30;;;15.88;;
51949;SDS011;37974;53.218;6.640;2022-10-17T06:47:29;21.85;;;15.82;;
51949;SDS011;37974;53.218;6.640;2022-10-17T06:49:55;27.10;;;15.98;;
51949;SDS011;37974;53.218;6.640;2022-10-17T06:52:21;24.25;;;15.77;;
51949;SDS011;37974;53.218;6.640;2022-10-17T06:54:47;29.67;;;16.20;;
51949;SDS011;37974;53.218;6.640;2022-10-17T06:57:13;27.70;;;16.48;;
51949;SDS011;37974;53.218;6.640;2022-10-17T06:59:38;22.55;;;16.58;;
51949;SDS011;37974;53.218;6.640;2022-10-17T07:02:04;24.90;;;16.27;;
51949;SDS011;37974;53.218;6.640;2022-10-17T07:04:30;29.80;;;17.30;;
51949;SDS011;37974;53.218;6.640;2022-10-17T07:06:56;26.10;;;16.58;;
51949;SDS011;37974;53.218;6.640;2022-10-17T07:09:22;20.83;;;15.43;;
51949;SDS011;37974;53.218;6.640;2022-10-17T07:11:48;21.02;;;15.73;;
51949;SDS011;37974;53.218;6.640;2022-10-17T07:14:14;25.58;;;16.35;;
51949;SDS011;37974;53.218;6.640;2022-10-17T07:16:40;27.25;;;16.70;;
51949;SDS011;37974;53.218;6.640;2022-10-17T07:19:05;22.90;;;16.73;;
51949;SDS011;37974;53.218;6.640;2022-10-17T07:21:31;29.23;;;16.40;;
51949;SDS011;37974;53.218;6.640;2022-10-17T07:23:57;22.75;;;17.02;;
51949;SDS011;37974;53.218;6.640;2022-10-17T07:26:22;23.52;;;15.35;;
51949;SDS011;37974;53.218;6.640;2022-10-17T07:28:50;25.25;;;15.73;;
51949;SDS011;37974;53.218;6.640;2022-10-17T07:31:17;21.98;;;15.05;;
51949;SDS011;37974;53.218;6.640;2022-10-17T07:33:44;25.02;;;15.30;;
51949;SDS011;37974;53.218;6.640;2022-10-17T07:36:10;23.33;;;15.82;;
51949;SDS011;37974;53.218;6.640;2022-10-17T07:38:37;23.42;;;15.18;;
51949;SDS011;37974;53.218;6.640;2022-10-17T07:41:04;31.80;;;15.27;;
51949;SDS011;37974;53.218;6.640;2022-10-17T07:43:31;27.05;;;15.15;;
51949;SDS011;37974;53.218;6.640;2022-10-17T07:45:59;23.25;;;14.23;;
51949;SDS011;37974;53.218;6.640;2022-10-17T07:48:26;20.25;;;13.25;;
51949;SDS011;37974;53.218;6.640;2022-10-17T07:50:54;22.58;;;13.77;;
51949;SDS011;37974;53.218;6.640;2022-10-17T07:53:20;22.70;;;12.90;;
51949;SDS011;37974;53.218;6.640;2022-10-17T07:55:46;21.55;;;12.95;;
51949;SDS011;37974;53.218;6.640;2022-10-17T07:58:13;20.48;;;12.25;;
51949;SDS011;37974;53.218;6.640;2022-10-17T08:00:40;20.73;;;11.52;;
51949;SDS011;37974;53.218;6.640;2022-10-17T08:03:06;18.10;;;11.57;;
51949;SDS011;37974;53.218;6.640;2022-10-17T08:05:32;22.35;;;12.82;;
51949;SDS011;37974;53.218;6.640;2022-10-17T08:07:58;17.73;;;11.85;;
51949;SDS011;37974;53.218;6.640;2022-10-17T08:10:24;20.10;;;11.57;;
51949;SDS011;37974;53.218;6.640;2022-10-17T08:12:54;16.92;;;10.90;;
51949;SDS011;37974;53.218;6.640;2022-10-17T08:15:21;32.45;;;10.85;;
51949;SDS011;37974;53.218;6.640;2022-10-17T08:17:47;17.25;;;9.63;;
51949;SDS011;37974;53.218;6.640;2022-10-17T08:20:13;17.63;;;9.40;;
51949;SDS011;37974;53.218;6.640;2022-10-17T08:22:39;19.17;;;9.13;;
51949;SDS011;37974;53.218;6.640;2022-10-17T08:25:05;16.98;;;9.32;;
51949;SDS011;37974;53.218;6.640;2022-10-17T08:27:32;12.77;;;8.35;;
51949;SDS011;37974;53.218;6.640;2022-10-17T08:29:58;15.90;;;8.50;;
51949;SDS011;37974;53.218;6.640;2022-10-17T08:32:25;12.18;;;8.07;;
51949;SDS011;37974;53.218;6.640;2022-10-17T08:34:52;16.58;;;8.30;;
51949;SDS011;37974;53.218;6.640;2022-10-17T08:37:18;12.38;;;8.48;;
51949;SDS011;37974;53.218;6.640;2022-10-17T08:39:44;14.88;;;9.15;;
51949;SDS011;37974;53.218;6.640;2022-10-17T08:47:25;11.57;;;8.10;;
51949;SDS011;37974;53.218;6.640;2022-10-17T08:49:54;16.65;;;8.77;;
51949;SDS011;37974;53.218;6.640;2022-10-17T08:55:12;16.15;;;8.50;;
51949;SDS011;37974;53.218;6.640;2022-10-17T08:57:53;16.20;;;7.70;;
51949;SDS011;37974;53.218;6.640;2022-10-17T09:00:20;22.00;;;8.10;;
51949;SDS011;37974;53.218;6.640;2022-10-17T09:05:52;16.92;;;7.60;;
51949;SDS011;37974;53.218;6.640;2022-10-17T09:11:13;13.45;;;7.18;;
51949;SDS011;37974;53.218;6.640;2022-10-17T09:13:47;14.82;;;7.05;;
51949;SDS011;37974;53.218;6.640;2022-10-17T09:16:43;14.48;;;8.20;;
51949;SDS011;37974;53.218;6.640;2022-10-17T09:19:24;15.98;;;7.25;;
51949;SDS011;37974;53.218;6.640;2022-10-17T09:21:57;16.08;;;7.60;;
51949;SDS011;37974;53.218;6.640;2022-10-17T09:27:05;13.15;;;7.63;;
51949;SDS011;37974;53.218;6.640;2022-10-17T09:29:41;14.27;;;7.85;;
51949;SDS011;37974;53.218;6.640;2022-10-17T09:32:12;14.88;;;8.02;;
51949;SDS011;37974;53.218;6.640;2022-10-17T09:34:42;14.77;;;7.70;;
51949;SDS011;37974;53.218;6.640;2022-10-17T09:37:12;16.83;;;7.25;;
51949;SDS011;37974;53.218;6.640;2022-10-17T09:39:39;16.63;;;6.93;;
51949;SDS011;37974;53.218;6.640;2022-10-17T09:42:07;12.70;;;7.38;;
51949;SDS011;37974;53.218;6.640;2022-10-17T09:44:50;11.98;;;6.80;;
51949;SDS011;37974;53.218;6.640;2022-10-17T09:47:37;12.93;;;6.68;;
51949;SDS011;37974;53.218;6.640;2022-10-17T09:50:14;13.65;;;6.85;;
51949;SDS011;37974;53.218;6.640;2022-10-17T09:52:46;14.98;;;8.07;;
51949;SDS011;37974;53.218;6.640;2022-10-17T09:55:21;10.35;;;6.68;;
51949;SDS011;37974;53.218;6.640;2022-10-17T09:57:52;14.07;;;7.00;;
51949;SDS011;37974;53.218;6.640;2022-10-17T10:00:22;9.98;;;7.13;;
51949;SDS011;37974;53.218;6.640;2022-10-17T10:02:50;14.18;;;7.68;;
51949;SDS011;37974;53.218;6.640;2022-10-17T10:05:31;11.82;;;7.30;;
51949;SDS011;37974;53.218;6.640;2022-10-17T10:08:01;12.38;;;7.45;;
51949;SDS011;37974;53.218;6.640;2022-10-17T10:10:30;14.65;;;7.65;;
51949;SDS011;37974;53.218;6.640;2022-10-17T10:13:01;27.50;;;8.38;;
51949;SDS011;37974;53.218;6.640;2022-10-17T10:15:32;10.80;;;8.38;;
51949;SDS011;37974;53.218;6.640;2022-10-17T11:01:40;20.58;;;12.43;;
51949;SDS011;37974;53.218;6.640;2022-10-17T11:17:14;26.65;;;14.13;;
51949;SDS011;37974;53.218;6.640;2022-10-17T11:20:10;25.02;;;13.80;;
51949;SDS011;37974;53.218;6.640;2022-10-17T11:23:13;23.77;;;13.75;;
51949;SDS011;37974;53.218;6.640;2022-10-17T11:25:45;23.88;;;14.32;;
51949;SDS011;37974;53.218;6.640;2022-10-17T11:28:15;26.98;;;13.43;;
51949;SDS011;37974;53.218;6.640;2022-10-17T11:30:50;23.95;;;13.55;;
51949;SDS011;37974;53.218;6.640;2022-10-17T11:42:24;21.02;;;13.05;;
51949;SDS011;37974;53.218;6.640;2022-10-17T11:48:24;24.52;;;13.60;;
51949;SDS011;37974;53.218;6.640;2022-10-17T11:51:11;25.23;;;12.90;;
51949;SDS011;37974;53.218;6.640;2022-10-17T12:20:54;16.90;;;9.95;;
51949;SDS011;37974;53.218;6.640;2022-10-17T12:23:24;16.98;;;10.10;;
51949;SDS011;37974;53.218;6.640;2022-10-17T12:26:11;22.65;;;11.68;;
51949;SDS011;37974;53.218;6.640;2022-10-17T12:29:00;18.08;;;11.60;;
51949;SDS011;37974;53.218;6.640;2022-10-17T12:31:25;16.95;;;10.15;;
51949;SDS011;37974;53.218;6.640;2022-10-17T12:33:55;15.70;;;10.05;;
51949;SDS011;37974;53.218;6.640;2022-10-17T12:47:26;19.80;;;7.78;;
51949;SDS011;37974;53.218;6.640;2022-10-17T12:49:50;23.13;;;8.02;;
51949;SDS011;37974;53.218;6.640;2022-10-17T12:55:05;17.45;;;6.60;;
51949;SDS011;37974;53.218;6.640;2022-10-17T13:00:22;9.10;;;5.80;;
51949;SDS011;37974;53.218;6.640;2022-10-17T13:03:01;9.80;;;5.38;;
51949;SDS011;37974;53.218;6.640;2022-10-17T13:05:35;13.63;;;5.10;;
51949;SDS011;37974;53.218;6.640;2022-10-17T13:08:05;9.60;;;5.00;;
51949;SDS011;37974;53.218;6.640;2022-10-17T13:10:37;8.15;;;4.47;;
51949;SDS011;37974;53.218;6.640;2022-10-17T13:15:44;9.60;;;4.95;;
51949;SDS011;37974;53.218;6.640;2022-10-17T13:18:15;12.50;;;4.72;;
51949;SDS011;37974;53.218;6.640;2022-10-17T13:21:26;9.88;;;4.53;;
51949;SDS011;37974;53.218;6.640;2022-10-17T13:23:57;12.70;;;4.75;;
51949;SDS011;37974;53.218;6.640;2022-10-17T13:26:55;8.52;;;4.53;;
51949;SDS011;37974;53.218;6.640;2022-10-17T13:37:06;10.52;;;5.05;;
51949;SDS011;37974;53.218;6.640;2022-10-17T13:42:55;11.82;;;5.00;;
51949;SDS011;37974;53.218;6.640;2022-10-17T13:45:31;9.38;;;4.93;;
51949;SDS011;37974;53.218;6.640;2022-10-17T13:48:16;10.13;;;5.35;;
51949;SDS011;37974;53.218;6.640;2022-10-17T13:51:30;12.52;;;6.28;;
51949;SDS011;37974;53.218;6.640;2022-10-17T13:57:19;19.65;;;5.43;;
51949;SDS011;37974;53.218;6.640;2022-10-17T14:00:04;9.40;;;4.43;;
51949;SDS011;37974;53.218;6.640;2022-10-17T14:02:46;12.82;;;4.47;;
51949;SDS011;37974;53.218;6.640;2022-10-17T14:05:22;15.10;;;4.07;;
51949;SDS011;37974;53.218;6.640;2022-10-17T14:07:59;14.10;;;3.67;;
51949;SDS011;37974;53.218;6.640;2022-10-17T14:10:30;8.88;;;3.42;;
51949;SDS011;37974;53.218;6.640;2022-10-17T14:12:59;11.25;;;2.83;;
51949;SDS011;37974;53.218;6.640;2022-10-17T14:15:27;9.60;;;3.30;;
51949;SDS011;37974;53.218;6.640;2022-10-17T14:17:56;6.82;;;2.75;;
51949;SDS011;37974;53.218;6.640;2022-10-17T14:20:26;9.85;;;2.85;;
51949;SDS011;37974;53.218;6.640;2022-10-17T14:22:56;9.18;;;2.60;;
51949;SDS011;37974;53.218;6.640;2022-10-17T14:25:28;9.60;;;2.88;;
51949;SDS011;37974;53.218;6.640;2022-10-17T14:28:13;10.88;;;2.70;;
51949;SDS011;37974;53.218;6.640;2022-10-17T14:42:20;14.23;;;3.95;;
51949;SDS011;37974;53.218;6.640;2022-10-17T14:45:13;11.85;;;3.72;;
51949;SDS011;37974;53.218;6.640;2022-10-17T14:47:55;9.85;;;3.28;;
51949;SDS011;37974;53.218;6.640;2022-10-17T14:51:14;12.70;;;3.60;;
51949;SDS011;37974;53.218;6.640;2022-10-17T14:59:04;8.43;;;3.92;;
51949;SDS011;37974;53.218;6.640;2022-10-17T15:02:37;11.80;;;4.70;;
51949;SDS011;37974;53.218;6.640;2022-10-17T15:06:18;13.30;;;5.18;;
51949;SDS011;37974;53.218;6.640;2022-10-17T15:08:23;11.05;;;4.60;;
51949;SDS011;37974;53.218;6.640;2022-10-17T15:10:49;8.45;;;3.95;;
51949;SDS011;37974;53.218;6.640;2022-10-17T15:16:29;9.43;;;3.88;;
51949;SDS011;37974;53.218;6.640;2022-10-17T15:19:32;7.35;;;3.58;;
51949;SDS011;37974;53.218;6.640;2022-10-17T15:22:04;11.77;;;4.10;;
51949;SDS011;37974;53.218;6.640;2022-10-17T15:24:29;10.90;;;4.85;;
51949;SDS011;37974;53.218;6.640;2022-10-17T15:26:58;11.43;;;4.07;;
51949;SDS011;37974;53.218;6.640;2022-10-17T15:32:57;9.13;;;4.30;;
51949;SDS011;37974;53.218;6.640;2022-10-17T15:38:18;9.52;;;3.80;;
51949;SDS011;37974;53.218;6.640;2022-10-17T15:40:57;10.15;;;2.75;;
51949;SDS011;37974;53.218;6.640;2022-10-17T15:43:28;7.13;;;2.55;;
51949;SDS011;37974;53.218;6.640;2022-10-17T15:46:03;12.65;;;2.63;;
51949;SDS011;37974;53.218;6.640;2022-10-17T15:49:02;6.93;;;2.05;;
51949;SDS011;37974;53.218;6.640;2022-10-17T15:51:31;8.68;;;2.40;;
51949;SDS011;37974;53.218;6.640;2022-10-17T15:53:58;9.20;;;2.70;;
51949;SDS011;37974;53.218;6.640;2022-10-17T15:56:27;7.63;;;2.70;;
51949;SDS011;37974;53.218;6.640;2022-10-17T15:59:29;6.75;;;2.20;;
51949;SDS011;37974;53.218;6.640;2022-10-17T16:02:00;7.13;;;2.38;;
51949;SDS011;37974;53.218;6.640;2022-10-17T16:04:26;8.38;;;2.38;;
51949;SDS011;37974;53.218;6.640;2022-10-17T16:07:24;10.38;;;2.42;;
51949;SDS011;37974;53.218;6.640;2022-10-17T16:10:09;8.52;;;2.60;;
51949;SDS011;37974;53.218;6.640;2022-10-17T16:13:11;8.35;;;2.15;;
51949;SDS011;37974;53.218;6.640;2022-10-17T16:16:10;9.30;;;2.45;;
51949;SDS011;37974;53.218;6.640;2022-10-17T16:18:36;7.28;;;2.28;;
51949;SDS011;37974;53.218;6.640;2022-10-17T16:21:44;10.50;;;2.38;;
51949;SDS011;37974;53.218;6.640;2022-10-17T16:24:31;9.35;;;2.50;;
51949;SDS011;37974;53.218;6.640;2022-10-17T16:27:10;9.55;;;3.17;;
51949;SDS011;37974;53.218;6.640;2022-10-17T16:29:44;6.28;;;2.63;;
51949;SDS011;37974;53.218;6.640;2022-10-17T16:32:12;11.00;;;3.42;;
51949;SDS011;37974;53.218;6.640;2022-10-17T16:34:38;8.35;;;3.05;;
51949;SDS011;37974;53.218;6.640;2022-10-17T16:37:04;9.05;;;3.65;;
51949;SDS011;37974;53.218;6.640;2022-10-17T16:39:30;11.82;;;4.30;;
51949;SDS011;37974;53.218;6.640;2022-10-17T16:41:59;14.40;;;4.88;;
51949;SDS011;37974;53.218;6.640;2022-10-17T16:44:25;11.13;;;4.75;;
51949;SDS011;37974;53.218;6.640;2022-10-17T16:47:05;10.02;;;4.95;;
51949;SDS011;37974;53.218;6.640;2022-10-17T16:49:56;13.43;;;5.15;;
51949;SDS011;37974;53.218;6.640;2022-10-17T16:52:25;12.98;;;4.82;;
51949;SDS011;37974;53.218;6.640;2022-10-17T16:55:08;11.73;;;4.93;;
51949;SDS011;37974;53.218;6.640;2022-10-17T16:58:03;10.73;;;4.82;;
51949;SDS011;37974;53.218;6.640;2022-10-17T17:08:06;8.55;;;4.03;;
51949;SDS011;37974;53.218;6.640;2022-10-17T17:11:04;10.65;;;4.40;;
51949;SDS011;37974;53.218;6.640;2022-10-17T17:13:56;10.70;;;5.47;;
51949;SDS011;37974;53.218;6.640;2022-10-17T17:16:50;16.50;;;5.50;;
51949;SDS011;37974;53.218;6.640;2022-10-17T17:19:37;10.25;;;5.13;;
51949;SDS011;37974;53.218;6.640;2022-10-17T17:23:14;13.38;;;5.15;;
51949;SDS011;37974;53.218;6.640;2022-10-17T17:25:48;13.13;;;4.70;;
51949;SDS011;37974;53.218;6.640;2022-10-17T17:28:21;15.45;;;4.55;;
51949;SDS011;37974;53.218;6.640;2022-10-17T17:31:14;10.32;;;4.60;;
51949;SDS011;37974;53.218;6.640;2022-10-17T17:33:59;13.15;;;5.22;;
51949;SDS011;37974;53.218;6.640;2022-10-17T18:40:48;17.88;;;11.15;;
51949;SDS011;37974;53.218;6.640;2022-10-17T18:43:44;23.02;;;11.85;;
51949;SDS011;37974;53.218;6.640;2022-10-17T18:46:24;20.27;;;11.02;;
51949;SDS011;37974;53.218;6.640;2022-10-17T18:48:52;16.63;;;10.35;;
51949;SDS011;37974;53.218;6.640;2022-10-17T18:51:19;21.10;;;10.27;;
51949;SDS011;37974;53.218;6.640;2022-10-17T18:53:49;19.98;;;11.57;;
51949;SDS011;37974;53.218;6.640;2022-10-17T18:56:19;26.17;;;12.90;;
51949;SDS011;37974;53.218;6.640;2022-10-17T18:59:03;25.27;;;12.80;;
51949;SDS011;37974;53.218;6.640;2022-10-17T19:01:30;25.75;;;13.85;;
51949;SDS011;37974;53.218;6.640;2022-10-17T19:03:56;25.17;;;13.68;;
51949;SDS011;37974;53.218;6.640;2022-10-17T19:06:24;24.65;;;13.70;;
51949;SDS011;37974;53.218;6.640;2022-10-17T19:09:13;27.52;;;15.15;;
51949;SDS011;37974;53.218;6.640;2022-10-17T19:11:46;27.00;;;14.20;;
51949;SDS011;37974;53.218;6.640;2022-10-17T19:14:13;27.50;;;15.38;;
51949;SDS011;37974;53.218;6.640;2022-10-17T19:16:43;25.90;;;14.50;;
51949;SDS011;37974;53.218;6.640;2022-10-17T19:19:23;29.85;;;16.90;;
51949;SDS011;37974;53.218;6.640;2022-10-17T19:21:56;35.75;;;17.58;;
51949;SDS011;37974;53.218;6.640;2022-10-17T19:24:26;31.92;;;18.67;;